Time;durP1;ratioP1;P1;durP2;ratioP2;P2;SDS_P1;SDS_P2;PMS_P1;PMS_P2;Temp;Humidity;BMP_temperature;BMP_pressure;BME280_temperature;BME280_humidity;BME280_pressure;Samples;Min_cycle;Max_cycle;Signal;HPM_P1;HPM_P2
2023/05/09 00:00:31;;;;;;;17.48;4.25;;;;;;;13.18;87.48;100473.44;5073483;28;20059;-44
2023/05/09 00:02:58;;;;;;;18.80;4.40;;;;;;;13.14;87.56;100475.34;5068943;28;20087;-46
2023/05/09 00:05:25;;;;;;;17.73;4.43;;;;;;;13.15;87.55;100471.38;5069047;28;20072;-45
2023/05/09 00:07:52;;;;;;;17.70;4.35;;;;;;;13.13;87.94;100462.63;5068674;28;20045;-45
2023/05/09 00:10:18;;;;;;;21.23;5.20;;;;;;;13.12;87.74;100472.13;5076134;28;20054;-45
2023/05/09 00:12:46;;;;;;;19.92;4.63;;;;;;;13.08;87.76;100471.28;5068830;28;20044;-44
2023/05/09 00:15:12;;;;;;;22.25;4.50;;;;;;;13.09;87.63;100467.31;5068906;28;20134;-44
2023/05/09 00:17:40;;;;;;;22.35;4.70;;;;;;;13.07;87.89;100467.69;5069384;28;20067;-45
2023/05/09 00:20:11;;;;;;;22.65;5.60;;;;;;;13.02;87.81;100461.59;5068648;28;20029;-49
2023/05/09 00:22:41;;;;;;;20.38;5.95;;;;;;;12.98;88.21;100457.91;5069134;28;20041;-48
2023/05/09 00:25:09;;;;;;;23.67;4.97;;;;;;;12.95;88.33;100469.75;5072670;28;20044;-46
2023/05/09 00:27:36;;;;;;;23.73;5.47;;;;;;;12.93;88.44;100475.72;5068995;28;20090;-43
2023/05/09 00:30:04;;;;;;;26.45;5.65;;;;;;;12.89;88.43;100468.47;5068670;28;20048;-44
2023/05/09 00:32:32;;;;;;;24.75;4.72;;;;;;;12.93;88.46;100472.13;5068874;28;20131;-44
2023/05/09 00:34:59;;;;;;;23.05;5.20;;;;;;;12.94;88.36;100476.50;5069313;28;20050;-44
2023/05/09 00:37:27;;;;;;;16.65;5.32;;;;;;;12.90;88.36;100472.84;5069074;28;20500;-44
2023/05/09 00:39:54;;;;;;;16.98;4.90;;;;;;;12.85;88.38;100473.97;5068457;28;20394;-44
2023/05/09 00:42:20;;;;;;;17.92;4.63;;;;;;;12.81;88.67;100473.88;5066712;28;20439;-51
2023/05/09 00:44:47;;;;;;;19.45;5.30;;;;;;;12.80;88.70;100477.84;5069506;28;20051;-44
2023/05/09 00:47:14;;;;;;;18.60;5.70;;;;;;;12.81;88.67;100468.31;5077271;28;20102;-43
2023/05/09 00:49:41;;;;;;;22.33;5.50;;;;;;;12.78;88.61;100480.19;5069798;28;20472;-45
2023/05/09 00:52:08;;;;;;;22.75;5.65;;;;;;;12.70;88.87;100478.44;5069250;28;20094;-43
2023/05/09 00:54:35;;;;;;;21.35;4.72;;;;;;;12.68;89.09;100479.97;5068950;28;20052;-48
2023/05/09 00:57:02;;;;;;;24.02;5.90;;;;;;;12.71;89.18;100484.78;5068534;28;20101;-43
2023/05/09 00:59:30;;;;;;;23.83;5.90;;;;;;;12.71;89.10;100473.66;5073276;28;20055;-44
2023/05/09 01:01:56;;;;;;;16.65;5.07;;;;;;;12.69;88.95;100482.38;5072534;28;20048;-48
2023/05/09 01:04:23;;;;;;;23.88;4.90;;;;;;;12.68;89.11;100474.41;5054600;28;20045;-43
2023/05/09 01:07:09;;;;;;;22.60;5.72;;;;;;;12.66;89.26;100483.09;5072251;28;20490;-45
2023/05/09 01:09:48;;;;;;;23.17;5.47;;;;;;;12.65;89.42;100477.94;5077234;28;20447;-43
2023/05/09 01:12:46;;;;;;;19.27;4.70;;;;;;;12.62;89.17;100485.00;5073713;28;20139;-42
2023/05/09 01:15:22;;;;;;;21.00;4.57;;;;;;;12.62;88.98;100490.56;5072537;28;20116;-44
2023/05/09 01:17:56;;;;;;;21.55;6.43;;;;;;;12.61;89.05;100486.16;5067800;28;20033;-43
2023/05/09 01:20:38;;;;;;;15.95;4.43;;;;;;;12.55;89.18;100487.63;5072251;28;20048;-44
2023/05/09 01:23:15;;;;;;;17.48;4.70;;;;;;;12.55;89.22;100481.28;5071763;28;20728;-44
2023/05/09 01:25:56;;;;;;;19.23;4.97;;;;;;;12.53;89.26;100478.84;5077904;28;20493;-44
2023/05/09 01:28:28;;;;;;;24.17;5.10;;;;;;;12.56;89.26;100480.09;5071852;28;20053;-44
2023/05/09 01:30:56;;;;;;;22.90;5.13;;;;;;;12.55;88.99;100482.06;5071975;28;20056;-44
2023/05/09 01:33:25;;;;;;;14.80;4.13;;;;;;;12.57;89.15;100484.50;5071116;28;20136;-43
2023/05/09 01:35:58;;;;;;;23.38;7.25;;;;;;;12.55;89.30;100478.50;5071100;28;20041;-44
2023/05/09 01:38:28;;;;;;;23.20;5.32;;;;;;;12.50;89.32;100479.59;5072298;28;20051;-46
2023/05/09 01:40:57;;;;;;;24.77;4.68;;;;;;;12.49;89.34;100477.19;5053662;28;20048;-46
2023/05/09 01:43:26;;;;;;;17.35;4.85;;;;;;;12.46;89.34;100475.94;5051292;28;20428;-43
2023/05/09 01:45:54;;;;;;;22.80;5.85;;;;;;;12.40;89.49;100474.63;5074003;28;20047;-44
2023/05/09 01:48:25;;;;;;;21.30;4.97;;;;;;;12.39;89.49;100472.22;5071520;28;20045;-44
2023/05/09 01:50:54;;;;;;;17.00;3.75;;;;;;;12.38;89.65;100476.97;5054884;28;20327;-44
2023/05/09 01:53:23;;;;;;;19.20;5.00;;;;;;;12.36;89.66;100468.19;5053908;28;20078;-44
2023/05/09 01:55:51;;;;;;;24.67;5.25;;;;;;;12.33;89.77;100476.44;5071858;28;20080;-48
2023/05/09 01:58:20;;;;;;;23.23;5.30;;;;;;;12.32;89.55;100469.25;5071144;28;20106;-47
2023/05/09 02:00:49;;;;;;;23.92;6.85;;;;;;;12.29;89.49;100468.03;5066763;28;20045;-43
2023/05/09 02:03:17;;;;;;;24.45;6.45;;;;;;;12.28;89.81;100468.41;5049582;28;20048;-44
2023/05/09 02:05:45;;;;;;;17.85;4.28;;;;;;;12.28;89.89;100465.63;5068954;28;20542;-43
2023/05/09 02:08:14;;;;;;;21.92;4.65;;;;;;;12.27;90.14;100467.59;5064613;28;20049;-43
2023/05/09 02:10:41;;;;;;;22.42;5.07;;;;;;;12.26;89.96;100465.97;5067291;28;20089;-43
2023/05/09 02:13:08;;;;;;;19.00;4.55;;;;;;;12.23;89.96;100469.50;5068879;28;20098;-43
2023/05/09 02:15:36;;;;;;;20.73;5.35;;;;;;;12.16;90.28;100463.75;5066334;28;20037;-44
2023/05/09 02:18:02;;;;;;;19.02;4.60;;;;;;;12.15;90.47;100460.19;5066526;28;20083;-44
2023/05/09 02:20:30;;;;;;;14.27;4.07;;;;;;;12.12;90.48;100454.56;5067464;28;20072;-43
2023/05/09 02:22:57;;;;;;;14.50;4.35;;;;;;;12.10;90.70;100459.66;5066604;28;20045;-47
2023/05/09 02:25:24;;;;;;;19.60;4.38;;;;;;;12.09;90.80;100458.06;5066177;28;20048;-44
2023/05/09 02:27:53;;;;;;;19.40;4.18;;;;;;;12.02;90.84;100446.81;5052352;28;20464;-45
2023/05/09 02:30:24;;;;;;;17.23;5.18;;;;;;;12.00;91.14;100454.69;5068153;28;20127;-43
2023/05/09 02:32:57;;;;;;;14.27;4.00;;;;;;;11.98;91.17;100451.47;5070139;28;20140;-43
2023/05/09 02:35:27;;;;;;;21.83;3.97;;;;;;;11.92;91.27;100448.16;5067022;28;20048;-44
2023/05/09 02:37:55;;;;;;;31.77;4.95;;;;;;;11.89;91.46;100448.06;5069511;28;20490;-46
2023/05/09 02:40:25;;;;;;;19.55;6.13;;;;;;;11.85;91.58;100447.19;5070008;28;20064;-43
2023/05/09 02:42:51;;;;;;;15.82;4.72;;;;;;;11.85;91.82;100447.19;5063502;28;20401;-44
2023/05/09 02:45:18;;;;;;;24.92;4.53;;;;;;;11.83;91.60;100442.03;5069088;28;20098;-43
2023/05/09 02:47:45;;;;;;;34.17;6.05;;;;;;;11.83;91.32;100444.00;5067543;28;20052;-44
2023/05/09 02:50:12;;;;;;;20.77;4.13;;;;;;;11.77;91.52;100440.69;5066741;28;20053;-44
2023/05/09 02:52:39;;;;;;;25.48;4.93;;;;;;;11.78;91.61;100441.50;5067040;28;20158;-43
2023/05/09 02:55:07;;;;;;;22.75;5.10;;;;;;;11.75;91.75;100440.25;5066529;28;20040;-43
2023/05/09 02:57:34;;;;;;;23.30;5.85;;;;;;;11.75;91.80;100431.94;5068022;28;20135;-43
2023/05/09 03:00:01;;;;;;;22.58;4.28;;;;;;;11.75;91.79;100436.66;5060921;28;20123;-43
2023/05/09 03:02:27;;;;;;;19.55;4.65;;;;;;;11.72;91.78;100434.59;5111535;22;20121;-43
2023/05/09 03:04:55;;;;;;;26.00;6.07;;;;;;;11.68;91.79;100433.66;5068445;28;20033;-43
2023/05/09 03:07:22;;;;;;;18.08;4.22;;;;;;;11.65;91.91;100442.75;5068283;28;20044;-43
2023/05/09 03:09:48;;;;;;;29.27;4.45;;;;;;;11.61;92.10;100432.38;5067763;28;20041;-44
2023/05/09 03:12:15;;;;;;;20.60;5.15;;;;;;;11.63;92.09;100438.34;5068290;28;20060;-44
2023/05/09 03:14:42;;;;;;;25.35;5.45;;;;;;;11.65;91.95;100442.75;5050035;28;20059;-43
2023/05/09 03:17:09;;;;;;;19.40;6.00;;;;;;;11.60;92.27;100443.78;5051773;28;20051;-43
2023/05/09 03:19:35;;;;;;;13.73;4.63;;;;;;;11.60;92.04;100435.47;5069148;28;20397;-45
2023/05/09 03:22:02;;;;;;;21.88;3.90;;;;;;;11.56;92.01;100435.41;5068090;28;20040;-43
2023/05/09 03:24:29;;;;;;;17.13;3.60;;;;;;;11.55;92.08;100444.06;5065579;28;20032;-44
2023/05/09 03:26:56;;;;;;;20.80;4.95;;;;;;;11.51;92.50;100426.56;5069848;28;20064;-43
2023/05/09 03:29:22;;;;;;;17.58;4.68;;;;;;;11.49;92.47;100438.00;5066848;28;20479;-44
2023/05/09 03:31:49;;;;;;;17.02;4.90;;;;;;;11.49;92.47;100437.22;5067368;28;20051;-45
2023/05/09 03:34:16;;;;;;;19.98;3.95;;;;;;;11.49;92.45;100428.91;5061862;28;20083;-43
2023/05/09 03:36:43;;;;;;;24.67;5.15;;;;;;;11.47;92.35;100432.00;5069372;28;20053;-43
2023/05/09 03:39:10;;;;;;;24.23;4.28;;;;;;;11.44;92.05;100424.41;5066468;28;20140;-44
2023/05/09 03:41:36;;;;;;;18.05;4.30;;;;;;;11.44;92.33;100427.19;5065509;28;20040;-43
2023/05/09 03:44:03;;;;;;;23.08;4.53;;;;;;;11.45;92.33;100423.25;5069219;28;20054;-43
2023/05/09 03:46:30;;;;;;;20.05;3.88;;;;;;;11.45;92.15;100423.25;5067089;28;20059;-43
2023/05/09 03:48:57;;;;;;;21.00;5.28;;;;;;;11.44;92.13;100421.63;5064837;28;20055;-44
2023/05/09 03:51:24;;;;;;;18.80;4.75;;;;;;;11.44;91.89;100421.63;5047102;28;20052;-43
2023/05/09 03:53:50;;;;;;;23.92;5.22;;;;;;;11.46;91.88;100424.84;5068206;28;20062;-43
2023/05/09 03:56:17;;;;;;;20.05;4.47;;;;;;;11.41;91.52;100427.09;5065434;28;20113;-44
2023/05/09 03:58:44;;;;;;;18.63;4.80;;;;;;;11.37;91.86;100417.88;5048854;28;20040;-43
2023/05/09 04:01:11;;;;;;;18.77;3.70;;;;;;;11.31;91.98;100422.88;5066925;28;20060;-44
2023/05/09 04:03:37;;;;;;;21.77;4.10;;;;;;;11.28;92.28;100418.06;5067056;28;20389;-43
2023/05/09 04:06:05;;;;;;;25.02;5.72;;;;;;;11.28;92.44;100420.81;5064428;28;20040;-43
2023/05/09 04:08:32;;;;;;;17.50;4.15;;;;;;;11.29;92.37;100425.22;5062772;28;20397;-43
2023/05/09 04:11:01;;;;;;;24.42;4.15;;;;;;;11.31;92.42;100422.06;5069611;28;20048;-41
2023/05/09 04:13:29;;;;;;;20.83;4.40;;;;;;;11.33;92.56;100417.78;5066388;28;20482;-41
2023/05/09 04:15:56;;;;;;;17.90;4.00;;;;;;;11.36;92.77;100413.50;5065866;28;20051;-41
2023/05/09 04:18:23;;;;;;;21.35;4.40;;;;;;;11.39;92.82;100413.59;5048788;28;20049;-43
2023/05/09 04:20:49;;;;;;;20.73;4.15;;;;;;;11.44;93.06;100409.72;5064802;28;20048;-41
2023/05/09 04:23:17;;;;;;;25.20;4.85;;;;;;;11.46;92.97;100416.53;5063841;28;20079;-41
2023/05/09 04:25:43;;;;;;;32.25;5.45;;;;;;;11.48;93.23;100417.00;5064137;28;20442;-42
2023/05/09 04:28:10;;;;;;;16.40;3.97;;;;;;;11.52;93.16;100414.28;5065789;28;20103;-41
2023/05/09 04:30:38;;;;;;;12.10;3.60;;;;;;;11.51;93.18;100413.50;5064809;28;20058;-42
2023/05/09 04:33:05;;;;;;;21.70;4.95;;;;;;;11.51;93.43;100410.75;5065958;28;20090;-41
2023/05/09 04:35:32;;;;;;;18.23;4.38;;;;;;;11.52;93.65;100411.50;5068064;28;20144;-42
2023/05/09 04:37:58;;;;;;;18.10;4.82;;;;;;;11.56;93.71;100416.00;5067605;28;20052;-42
2023/05/09 04:40:25;;;;;;;15.23;3.92;;;;;;;11.61;93.61;100418.50;5067376;28;20414;-41
2023/05/09 04:42:52;;;;;;;25.35;6.00;;;;;;;11.66;93.70;100411.06;5065920;28;20044;-42
2023/05/09 04:45:19;;;;;;;18.25;4.10;;;;;;;11.66;93.58;100399.97;5063149;28;20379;-42
2023/05/09 04:47:46;;;;;;;20.95;4.50;;;;;;;11.72;93.51;100406.88;5067068;28;20529;-41
2023/05/09 04:50:12;;;;;;;15.35;4.50;;;;;;;11.77;93.60;100406.59;5050047;28;20063;-42
2023/05/09 04:52:39;;;;;;;21.90;5.55;;;;;;;11.81;93.32;100401.94;5062193;28;20405;-46
2023/05/09 04:55:07;;;;;;;33.00;6.78;;;;;;;11.79;93.08;100399.53;5041103;28;20048;-42
2023/05/09 04:57:34;;;;;;;20.05;4.97;;;;;;;11.82;93.25;100403.53;5064917;28;20397;-42
2023/05/09 05:00:00;;;;;;;19.70;3.92;;;;;;;11.84;93.03;100396.47;5077020;28;20051;-43
2023/05/09 05:02:27;;;;;;;19.52;3.97;;;;;;;11.85;92.87;100398.09;5067930;28;20131;-42
2023/05/09 05:04:54;;;;;;;15.18;4.28;;;;;;;11.89;92.91;100392.59;5068339;28;20048;-44
2023/05/09 05:07:36;;;;;;;;;;;;;;;11.88;92.69;100396.56;5069286;28;20055;-42
2023/05/09 05:10:05;;;;;;;21.20;5.00;;;;;;;11.89;92.51;100387.03;5074445;28;20045;-42
2023/05/09 05:12:32;;;;;;;21.98;4.43;;;;;;;11.92;92.85;100386.31;5055451;28;20068;-45
2023/05/09 05:14:58;;;;;;;21.52;5.90;;;;;;;11.93;92.80;100391.53;5060412;28;20532;-44
2023/05/09 05:17:28;;;;;;;21.83;4.80;;;;;;;11.93;92.96;100390.72;5068058;28;20051;-42
2023/05/09 05:19:55;;;;;;;21.55;3.92;;;;;;;11.93;92.87;100387.94;5067969;28;20410;-42
2023/05/09 05:22:21;;;;;;;23.52;6.25;;;;;;;11.98;93.31;100390.44;5068551;28;20049;-42
2023/05/09 05:24:48;;;;;;;22.92;5.35;;;;;;;12.00;93.07;100388.09;5066387;28;20102;-46
2023/05/09 05:27:15;;;;;;;21.35;4.10;;;;;;;12.00;92.83;100394.44;5064626;28;20047;-43
2023/05/09 05:29:42;;;;;;;24.67;5.07;;;;;;;12.01;93.02;100384.16;5060484;28;20037;-43
2023/05/09 05:32:09;;;;;;;20.80;5.22;;;;;;;12.00;92.95;100383.34;5065499;28;20040;-43
2023/05/09 05:34:38;;;;;;;23.25;4.35;;;;;;;11.99;92.85;100392.03;5065210;28;20074;-51
2023/05/09 05:37:05;;;;;;;18.15;4.45;;;;;;;12.03;92.92;100384.59;5055336;28;20139;-43
2023/05/09 05:39:31;;;;;;;29.70;5.07;;;;;;;12.03;92.91;100388.19;5065643;28;20045;-43
2023/05/09 05:41:58;;;;;;;22.65;5.57;;;;;;;11.97;92.75;100384.06;5065499;28;20044;-45
2023/05/09 05:44:25;;;;;;;20.95;5.50;;;;;;;11.96;92.80;100381.69;5064184;28;20055;-43
2023/05/09 05:46:51;;;;;;;24.52;8.63;;;;;;;11.95;92.78;100391.16;5068254;28;20115;-44
2023/05/09 05:49:18;;;;;;;21.92;4.63;;;;;;;11.93;92.84;100388.75;5049549;28;20059;-44
2023/05/09 05:51:45;;;;;;;17.38;4.65;;;;;;;11.90;92.88;100383.13;5064817;28;20120;-43
2023/05/09 05:54:11;;;;;;;32.92;6.18;;;;;;;11.93;92.62;100394.31;5078150;28;20052;-44
2023/05/09 05:56:38;;;;;;;18.65;6.40;;;;;;;11.96;92.77;100381.69;5071513;28;20049;-43
2023/05/09 05:59:05;;;;;;;21.15;5.25;;;;;;;12.04;92.94;100383.44;5072774;28;20044;-43
2023/05/09 06:01:32;;;;;;;22.13;5.05;;;;;;;12.10;92.74;100393.06;5071285;28;20144;-44
2023/05/09 06:03:59;;;;;;;19.85;4.95;;;;;;;12.13;92.67;100381.22;5071523;28;20139;-43
2023/05/09 06:06:26;;;;;;;25.38;4.47;;;;;;;12.15;92.61;100376.94;5070404;28;20485;-44
2023/05/09 06:08:54;;;;;;;13.68;3.63;;;;;;;12.20;92.45;100384.19;5071098;28;20055;-43
2023/05/09 06:11:22;;;;;;;28.73;5.43;;;;;;;12.25;92.38;100371.97;5079827;28;20076;-43
2023/05/09 06:13:48;;;;;;;24.73;6.30;;;;;;;12.30;92.43;100380.00;5068967;28;20048;-43
2023/05/09 06:16:15;;;;;;;20.63;6.05;;;;;;;12.29;92.33;100379.19;5066953;28;20051;-44
2023/05/09 06:18:46;;;;;;;14.63;4.50;;;;;;;12.31;92.28;100382.41;5067148;28;20078;-43
2023/05/09 06:21:13;;;;;;;16.23;5.00;;;;;;;12.32;92.18;100383.22;5065227;28;20048;-44
2023/05/09 06:23:40;;;;;;;17.30;5.20;;;;;;;12.35;92.09;100388.03;5045171;28;20047;-51
2023/05/09 06:26:26;;;;;;;20.00;4.10;;;;;;;12.42;92.00;100385.41;5067230;28;20040;-44
2023/05/09 06:28:53;;;;;;;19.90;4.53;;;;;;;12.42;91.73;100388.97;5071704;28;20402;-44
2023/05/09 06:31:20;;;;;;;25.67;6.10;;;;;;;12.43;91.73;100396.16;5071745;28;20057;-44
2023/05/09 06:33:48;;;;;;;16.02;4.63;;;;;;;12.42;91.66;100399.28;5053333;28;20044;-44
2023/05/09 06:36:15;;;;;;;27.90;4.88;;;;;;;12.45;91.77;100385.47;5053182;28;20087;-44
2023/05/09 06:38:42;;;;;;;22.40;5.38;;;;;;;12.54;91.71;100388.84;5071457;28;20490;-43
2023/05/09 06:41:08;;;;;;;19.63;5.25;;;;;;;12.62;91.80;100387.00;5077671;28;20044;-44
2023/05/09 06:43:35;;;;;;;25.55;5.60;;;;;;;12.67;91.53;100381.94;5070978;28;20147;-45
2023/05/09 06:46:02;;;;;;;17.08;4.72;;;;;;;12.72;91.34;100380.84;5070936;28;20049;-44
2023/05/09 06:48:29;;;;;;;28.58;5.32;;;;;;;12.82;91.63;100385.78;5053596;28;20059;-44
2023/05/09 06:50:57;;;;;;;19.55;5.50;;;;;;;12.89;91.08;100390.69;5068825;28;20056;-44
2023/05/09 06:53:23;;;;;;;27.17;7.32;;;;;;;12.95;90.88;100390.00;5067311;28;20055;-45
2023/05/09 06:55:50;;;;;;;26.25;5.05;;;;;;;13.06;91.10;100391.00;5061460;28;20115;-45
2023/05/09 06:58:17;;;;;;;20.25;5.13;;;;;;;13.15;90.96;100382.44;5053784;28;20041;-44
2023/05/09 07:00:44;;;;;;;25.83;4.82;;;;;;;13.26;90.62;100384.22;5061444;28;20048;-48
2023/05/09 07:03:11;;;;;;;25.35;4.85;;;;;;;13.34;90.79;100387.94;5065140;28;20508;-45
2023/05/09 07:05:37;;;;;;;18.38;5.88;;;;;;;13.43;90.61;100388.47;5070414;28;20110;-44
2023/05/09 07:08:04;;;;;;;20.17;4.97;;;;;;;13.50;90.47;100383.03;5036239;28;20040;-49
2023/05/09 07:10:31;;;;;;;22.80;5.30;;;;;;;13.54;89.88;100386.66;5049433;28;20115;-47
2023/05/09 07:12:58;;;;;;;21.70;5.57;;;;;;;13.63;90.19;100398.34;5050495;28;20545;-51
2023/05/09 07:15:24;;;;;;;16.10;4.47;;;;;;;13.73;90.00;100392.13;5046606;28;20102;-48
2023/05/09 07:18:06;;;;;;;27.67;8.23;;;;;;;13.90;89.69;100402.69;5047305;28;20051;-45
2023/05/09 07:20:33;;;;;;;23.70;7.05;;;;;;;13.97;89.61;100397.25;5051322;28;22076;-45
2023/05/09 07:23:02;;;;;;;13.75;5.75;;;;;;;14.04;89.31;100396.53;5049373;28;20647;-49
2023/05/09 07:25:29;;;;;;;18.30;4.68;;;;;;;14.10;89.28;100394.22;5033121;28;20405;-44
2023/05/09 07:27:56;;;;;;;19.35;6.07;;;;;;;14.17;89.24;100400.69;5051550;28;20554;-48
2023/05/09 07:30:23;;;;;;;26.85;5.20;;;;;;;14.26;89.03;100386.47;5040961;28;20441;-45
2023/05/09 07:32:50;;;;;;;16.45;4.45;;;;;;;14.34;88.81;100396.56;5062922;28;20506;-44
2023/05/09 07:35:19;;;;;;;19.58;5.10;;;;;;;14.46;89.06;100397.09;5059420;28;20090;-47
2023/05/09 07:37:45;;;;;;;18.73;5.35;;;;;;;14.57;89.03;100392.47;5062969;28;20087;-44
2023/05/09 07:40:12;;;;;;;15.30;4.90;;;;;;;14.62;88.91;100394.09;5062450;28;20379;-45
2023/05/09 07:42:41;;;;;;;23.48;6.88;;;;;;;14.63;89.05;100393.75;5060172;28;20106;-48
2023/05/09 07:45:09;;;;;;;19.77;4.97;;;;;;;14.72;89.58;100401.00;5060356;28;20044;-45
2023/05/09 07:47:35;;;;;;;22.02;5.40;;;;;;;14.80;90.00;100395.09;5044050;28;20368;-45
2023/05/09 07:50:02;;;;;;;21.75;5.40;;;;;;;14.93;90.04;100388.06;5059859;28;20045;-46
2023/05/09 07:52:29;;;;;;;26.25;5.25;;;;;;;15.09;90.98;100399.78;5060948;28;20402;-45
2023/05/09 07:54:56;;;;;;;23.40;6.65;;;;;;;15.31;90.70;100397.19;5059937;28;20072;-44
2023/05/09 07:57:23;;;;;;;19.88;4.97;;;;;;;15.49;90.25;100398.97;5060851;28;20048;-48
2023/05/09 07:59:50;;;;;;;21.13;4.93;;;;;;;15.69;89.87;100400.34;5058341;28;20048;-44
2023/05/09 08:02:17;;;;;;;16.77;4.82;;;;;;;15.83;88.04;100402.41;5058335;28;20080;-44
2023/05/09 08:04:47;;;;;;;24.05;6.60;;;;;;;15.84;86.92;100390.03;5061258;28;20049;-44
2023/05/09 08:07:15;;;;;;;18.55;5.85;;;;;;;15.82;85.57;100390.44;5061355;28;20051;-47
2023/05/09 08:09:41;;;;;;;19.10;4.85;;;;;;;16.03;85.15;100386.16;5060466;28;20044;-44
2023/05/09 08:12:08;;;;;;;14.43;4.15;;;;;;;16.52;84.86;100394.00;5060383;28;20062;-45
2023/05/09 08:14:35;;;;;;;18.20;4.85;;;;;;;17.21;83.60;100397.38;5043291;28;20048;-44
2023/05/09 08:17:02;;;;;;;21.75;5.80;;;;;;;17.88;81.21;100397.34;5062637;28;20102;-45
2023/05/09 08:19:29;;;;;;;20.23;4.75;;;;;;;18.49;79.57;100394.00;5061042;28;20543;-45
2023/05/09 08:21:57;;;;;;;20.17;5.13;;;;;;;18.97;77.13;100390.53;5060057;28;20060;-47
2023/05/09 08:24:24;;;;;;;21.10;4.32;;;;;;;19.26;75.39;100387.13;5059284;28;20133;-45
2023/05/09 08:26:51;;;;;;;22.42;6.05;;;;;;;19.46;73.91;100386.63;5057550;28;20045;-50
2023/05/09 08:29:17;;;;;;;23.20;5.45;;;;;;;19.53;71.98;100390.16;5060864;28;20145;-43
2023/05/09 08:31:45;;;;;;;18.73;4.72;;;;;;;19.41;71.05;100394.25;5041502;28;20524;-45
2023/05/09 08:34:12;;;;;;;24.92;4.97;;;;;;;19.28;69.39;100397.94;5059543;28;20119;-43
2023/05/09 08:36:39;;;;;;;19.17;5.63;;;;;;;19.10;69.04;100392.47;5058939;28;20143;-43
2023/05/09 08:39:08;;;;;;;20.00;4.60;;;;;;;18.83;68.05;100386.63;5057218;28;20053;-44
2023/05/09 08:41:35;;;;;;;27.83;4.68;;;;;;;18.62;68.33;100386.72;5058317;28;20478;-48
2023/05/09 08:44:03;;;;;;;16.10;3.78;;;;;;;18.61;67.95;100389.97;5059643;28;20044;-46
2023/05/09 08:46:35;;;;;;;21.77;4.50;;;;;;;18.63;67.99;100382.72;5058665;28;20060;-45
2023/05/09 08:49:05;;;;;;;15.48;4.43;;;;;;;18.67;67.57;100380.69;5059011;28;20045;-46
2023/05/09 08:51:34;;;;;;;16.17;3.72;;;;;;;18.60;66.50;100389.16;5061055;28;20044;-48
2023/05/09 08:54:02;;;;;;;16.20;3.85;;;;;;;18.42;66.37;100370.78;5060363;28;20047;-44
2023/05/09 08:56:30;;;;;;;12.13;3.45;;;;;;;18.32;66.41;100380.03;5061030;28;20088;-45
2023/05/09 08:58:57;;;;;;;17.40;4.05;;;;;;;18.33;66.16;100376.03;5059928;28;20055;-44
2023/05/09 09:01:25;;;;;;;22.23;4.20;;;;;;;18.22;65.76;100378.84;5057219;28;21373;-48
2023/05/09 09:03:52;;;;;;;12.63;3.88;;;;;;;18.07;65.92;100382.91;5057262;28;20044;-47
2023/05/09 09:06:22;;;;;;;15.25;3.90;;;;;;;17.94;66.31;100373.34;5060542;28;20045;-48
2023/05/09 09:08:49;;;;;;;15.95;4.15;;;;;;;18.02;66.02;100369.31;5042361;28;20779;-44
2023/05/09 09:11:17;;;;;;;14.20;3.55;;;;;;;18.06;66.05;100361.69;5060206;28;20045;-48
2023/05/09 09:13:45;;;;;;;13.20;3.38;;;;;;;18.16;65.70;100358.09;5059838;28;20053;-44
2023/05/09 09:16:19;;;;;;;14.75;3.97;;;;;;;18.30;65.71;100360.81;5059354;28;20040;-47
2023/05/09 09:18:46;;;;;;;13.93;4.10;;;;;;;18.47;65.38;100353.53;5043382;28;20036;-43
2023/05/09 09:21:17;;;;;;;13.82;3.30;;;;;;;18.89;64.57;100355.31;5064502;28;20045;-43
2023/05/09 09:23:49;;;;;;;16.00;5.75;;;;;;;19.26;64.08;100355.44;5064758;28;20055;-50
2023/05/09 09:26:15;;;;;;;11.98;3.75;;;;;;;19.87;63.47;100362.94;5064081;28;20057;-45
2023/05/09 09:28:42;;;;;;;12.93;3.38;;;;;;;20.61;61.75;100370.50;5065263;28;20059;-44
2023/05/09 09:31:27;;;;;;;15.85;4.10;;;;;;;21.29;60.79;100370.31;5063107;28;20052;-51
2023/05/09 09:34:01;;;;;;;17.98;4.45;;;;;;;21.74;59.45;100365.13;5063739;28;20476;-54
2023/05/09 09:36:31;;;;;;;11.15;3.58;;;;;;;22.05;57.74;100360.97;5063546;28;20061;-45
2023/05/09 09:38:59;;;;;;;15.70;3.65;;;;;;;22.12;56.70;100357.97;5062864;28;20719;-43
2023/05/09 09:41:44;;;;;;;14.90;3.53;;;;;;;22.48;56.82;100354.44;5063175;28;20048;-51
2023/05/09 09:44:19;;;;;;;12.10;3.42;;;;;;;22.85;55.19;100351.19;5062682;28;20132;-44
2023/05/09 09:46:49;;;;;;;11.90;2.65;;;;;;;23.01;53.64;100354.03;5059577;28;20045;-45
2023/05/09 09:49:19;;;;;;;14.50;3.60;;;;;;;22.98;53.36;100347.25;5063306;28;20502;-43
2023/05/09 09:51:56;;;;;;;12.52;4.03;;;;;;;23.29;53.77;100352.59;5065149;28;20029;-43
2023/05/09 09:54:27;;;;;;;11.80;3.17;;;;;;;23.36;52.32;100341.91;5058154;28;20084;-43
2023/05/09 09:56:55;;;;;;;12.65;3.15;;;;;;;23.44;51.20;100343.34;5047081;28;20133;-44
2023/05/09 09:59:24;;;;;;;10.88;2.78;;;;;;;23.42;50.61;100337.34;5048972;28;20055;-43
2023/05/09 10:02:05;;;;;;;11.75;3.00;;;;;;;23.29;50.94;100342.09;5049663;28;20518;-44
2023/05/09 10:04:36;;;;;;;15.50;4.68;;;;;;;22.82;51.33;100344.41;5050010;28;21998;-45
2023/05/09 10:07:05;;;;;;;14.50;3.42;;;;;;;22.54;51.26;100336.56;5035902;28;20056;-44
2023/05/09 10:09:33;;;;;;;11.48;3.00;;;;;;;21.89;52.23;100332.69;5048281;28;20060;-46
2023/05/09 10:12:05;;;;;;;12.15;3.45;;;;;;;21.58;52.80;100334.81;5048427;28;20057;-47
2023/05/09 10:14:34;;;;;;;12.85;2.92;;;;;;;21.64;52.42;100340.75;5042783;28;20048;-49
2023/05/09 10:17:03;;;;;;;7.90;2.08;;;;;;;21.54;51.99;100330.47;5048257;28;21111;-45
2023/05/09 10:19:30;;;;;;;18.25;3.72;;;;;;;20.94;52.65;100335.03;5061690;28;20048;-43
2023/05/09 10:22:04;;;;;;;12.15;3.58;;;;;;;20.90;52.91;100339.94;5058362;28;20151;-45
2023/05/09 10:24:40;;;;;;;11.95;2.35;;;;;;;21.07;52.09;100324.84;5061997;28;20406;-47
2023/05/09 10:27:11;;;;;;;8.52;1.85;;;;;;;21.06;51.44;100333.66;5062201;28;20087;-43
2023/05/09 10:29:45;;;;;;;11.48;2.22;;;;;;;20.89;51.67;100335.53;5059417;28;20739;-45
2023/05/09 10:32:22;;;;;;;7.85;2.00;;;;;;;20.47;51.52;100330.50;5059617;28;20543;-43
2023/05/09 10:34:53;;;;;;;7.90;2.47;;;;;;;20.18;52.50;100329.25;5062347;28;20055;-44
2023/05/09 10:37:20;;;;;;;7.25;2.35;;;;;;;20.09;52.83;100331.78;5060273;28;20052;-51
2023/05/09 10:39:51;;;;;;;11.15;2.88;;;;;;;19.91;52.81;100321.53;5064007;28;20036;-44
2023/05/09 10:42:19;;;;;;;9.20;2.40;;;;;;;19.76;52.82;100328.53;5044850;28;20587;-43
2023/05/09 10:44:46;;;;;;;6.75;1.85;;;;;;;19.77;52.96;100321.72;5061514;28;20067;-44
2023/05/09 10:47:14;;;;;;;12.63;2.42;;;;;;;19.79;52.80;100322.09;5062619;28;20053;-45
2023/05/09 10:49:43;;;;;;;11.50;3.30;;;;;;;19.77;52.52;100316.09;5061862;28;20045;-43
2023/05/09 10:52:09;;;;;;;8.23;2.20;;;;;;;19.75;53.00;100317.72;5062799;28;20155;-48
2023/05/09 10:54:36;;;;;;;12.05;2.63;;;;;;;19.61;53.15;100313.06;5061398;28;20410;-45
2023/05/09 10:57:05;;;;;;;7.93;2.50;;;;;;;19.44;53.59;100306.41;5062714;28;20049;-43
2023/05/09 10:59:33;;;;;;;11.65;2.28;;;;;;;19.32;53.85;100309.69;5062281;28;20063;-45
2023/05/09 11:02:02;;;;;;;10.50;2.40;;;;;;;19.14;54.00;100311.84;5060755;28;20810;-46
2023/05/09 11:04:31;;;;;;;8.20;2.83;;;;;;;18.95;54.74;100301.19;5062126;28;20072;-47
2023/05/09 11:06:59;;;;;;;8.32;1.85;;;;;;;18.96;54.69;100304.78;5063181;28;21404;-43
2023/05/09 11:09:37;;;;;;;11.90;3.35;;;;;;;18.99;54.89;100298.34;5063991;28;20070;-44
2023/05/09 11:12:04;;;;;;;7.65;1.95;;;;;;;18.93;54.67;100300.78;5063721;28;20437;-43
2023/05/09 11:14:42;;;;;;;9.90;1.90;;;;;;;18.95;54.99;100295.59;5062886;28;20052;-43
2023/05/09 11:17:10;;;;;;;7.50;2.20;;;;;;;19.01;54.69;100290.31;5062703;28;20567;-49
2023/05/09 11:19:57;;;;;;;7.55;2.10;;;;;;;19.07;54.92;100292.25;5062739;28;20056;-43
2023/05/09 11:22:26;;;;;;;8.20;2.17;;;;;;;19.14;55.04;100280.97;5062775;28;20138;-45